createdAt,value
2023-05-25T00:02:15.685Z,84.09
2023-05-25T00:07:23.761Z,84.00
2023-05-25T00:12:30.240Z,84.46
2023-05-25T00:17:37.653Z,84.80
2023-05-25T00:22:46.564Z,84.91
2023-05-25T00:27:52.852Z,86.12
2023-05-25T00:33:00.268Z,85.80
2023-05-25T00:38:07.930Z,85.78
2023-05-25T00:43:15.380Z,86.22
2023-05-25T00:48:22.312Z,86.58
2023-05-25T00:53:30.239Z,86.76
2023-05-25T00:58:41.597Z,87.44
2023-05-25T01:03:54.358Z,86.71
2023-05-25T01:09:06.260Z,86.04
2023-05-25T01:14:13.191Z,86.32
2023-05-25T01:19:19.627Z,87.06
2023-05-25T01:24:36.814Z,87.38
2023-05-25T01:29:47.256Z,87.02
2023-05-25T01:34:55.915Z,86.99
2023-05-25T01:40:05.432Z,87.20
2023-05-25T01:45:13.551Z,86.88
2023-05-25T01:50:31.697Z,87.13
2023-05-25T01:55:48.128Z,87.12
2023-05-25T02:00:55.935Z,87.06
2023-05-25T02:06:03.219Z,87.57
2023-05-25T02:11:11.274Z,87.26
2023-05-25T02:16:18.014Z,87.21
2023-05-25T02:21:24.944Z,87.61
2023-05-25T02:26:32.951Z,87.31
2023-05-25T02:31:39.585Z,87.63
2023-05-25T02:36:46.648Z,87.46
2023-05-25T02:41:54.604Z,88.09
2023-05-25T02:47:01.850Z,87.99
2023-05-25T02:52:08.502Z,87.77
2023-05-25T02:57:16.556Z,87.99
2023-05-25T03:02:25.905Z,88.22
2023-05-25T03:07:32.841Z,88.25
2023-05-25T03:12:40.878Z,87.28
2023-05-25T03:17:47.272Z,87.39
2023-05-25T03:22:53.615Z,87.41
2023-05-25T03:28:01.214Z,87.53
2023-05-25T03:33:07.525Z,87.17
2023-05-25T03:38:20.806Z,87.51
2023-05-25T03:43:28.927Z,86.85
2023-05-25T03:48:35.090Z,87.54
2023-05-25T03:53:41.525Z,87.55
2023-05-25T03:58:49.331Z,87.91
2023-05-25T04:03:58.329Z,87.59
2023-05-25T04:09:05.499Z,87.30
2023-05-25T04:14:14.681Z,87.46
2023-05-25T04:19:22.054Z,87.71
2023-05-25T04:24:28.544Z,87.62
2023-05-25T04:29:37.691Z,87.45
2023-05-25T04:35:03.616Z,87.37
2023-05-25T04:40:21.761Z,86.53
2023-05-25T04:45:32.428Z,86.60
2023-05-25T04:50:40.556Z,86.35
2023-05-25T04:55:49.716Z,86.73
2023-05-25T05:00:57.735Z,87.00
2023-05-25T05:06:04.280Z,86.67
2023-05-25T05:11:12.658Z,86.71
2023-05-25T05:16:21.216Z,86.73
2023-05-25T05:21:27.993Z,86.44
2023-05-25T05:26:48.214Z,86.32
2023-05-25T05:32:04.635Z,86.30
2023-05-25T05:37:11.981Z,86.47
2023-05-25T05:42:18.376Z,86.51
2023-05-25T05:47:26.483Z,86.55
2023-05-25T05:52:33.184Z,85.98
2023-05-25T05:57:41.038Z,86.56
2023-05-25T06:02:49.361Z,87.01
2023-05-25T06:07:59.811Z,86.77
2023-05-25T06:13:07.770Z,86.07
2023-05-25T06:18:16.043Z,85.60
2023-05-25T06:23:22.637Z,84.95
2023-05-25T06:28:29.080Z,85.18
2023-05-25T06:33:37.053Z,84.87
2023-05-25T06:38:43.825Z,84.73
2023-05-25T06:43:50.566Z,84.46
2023-05-25T06:49:20.583Z,84.98
2023-05-25T06:54:27.088Z,85.11
2023-05-25T06:59:33.722Z,84.73
2023-05-25T07:04:41.825Z,84.45
2023-05-25T07:09:48.702Z,84.64
2023-05-25T07:14:55.142Z,85.09
2023-05-25T07:20:02.983Z,84.92
2023-05-25T07:25:12.020Z,84.55
2023-05-25T07:30:18.663Z,83.93
2023-05-25T07:35:27.043Z,83.09
2023-05-25T07:40:33.665Z,83.59
2023-05-25T07:45:40.085Z,82.45
2023-05-25T07:50:48.169Z,82.92
2023-05-25T07:55:54.695Z,83.48
2023-05-25T08:01:01.069Z,80.17
2023-05-25T08:06:09.185Z,80.80
2023-05-25T08:11:17.228Z,80.99
2023-05-25T08:16:23.935Z,81.42
2023-05-25T08:21:35.359Z,81.19
2023-05-25T08:26:53.957Z,80.57
2023-05-25T08:32:01.467Z,80.36
2023-05-25T08:37:09.517Z,78.79
2023-05-25T08:42:15.793Z,79.31
2023-05-25T08:47:24.691Z,80.06
2023-05-25T08:52:35.791Z,79.40
2023-05-25T08:57:57.017Z,80.23
2023-05-25T09:03:18.531Z,78.48
2023-05-25T09:08:27.682Z,79.07
2023-05-25T09:13:34.541Z,79.77
2023-05-25T09:18:41.764Z,79.97
2023-05-25T09:23:53.276Z,80.74
2023-05-25T09:29:00.268Z,80.89
2023-05-25T09:34:12.599Z,81.24
2023-05-25T09:39:20.593Z,81.63
2023-05-25T09:44:28.777Z,81.86
2023-05-25T09:49:35.544Z,80.48
2023-05-25T09:54:47.601Z,80.50
2023-05-25T09:59:54.990Z,79.52
2023-05-25T10:05:01.616Z,78.97
2023-05-25T10:10:15.588Z,78.04
2023-05-25T10:15:23.470Z,77.31
2023-05-25T10:20:34.273Z,75.92
2023-05-25T10:25:46.954Z,74.91
2023-05-25T10:30:56.018Z,73.33
2023-05-25T10:36:10.735Z,73.57
2023-05-25T10:41:22.424Z,74.18
2023-05-25T10:46:29.792Z,73.31
2023-05-25T10:51:44.198Z,73.03
2023-05-25T10:57:14.582Z,72.67
2023-05-25T11:02:24.068Z,73.12
2023-05-25T11:07:30.738Z,72.19
2023-05-25T11:12:40.589Z,71.66
2023-05-25T11:17:50.330Z,71.03
2023-05-25T11:22:58.346Z,71.58
2023-05-25T11:28:08.151Z,71.58
2023-05-25T11:33:14.889Z,69.99
2023-05-25T11:38:22.146Z,69.15
2023-05-25T11:43:30.624Z,68.71
2023-05-25T11:48:37.202Z,69.95
2023-05-25T11:53:47.912Z,70.14
2023-05-25T11:58:55.702Z,68.82
2023-05-25T12:04:11.868Z,68.12
2023-05-25T12:09:23.472Z,67.15
2023-05-25T12:14:32.045Z,67.11
2023-05-25T12:19:38.278Z,67.77
2023-05-25T12:24:45.012Z,67.94
2023-05-25T12:29:54.718Z,67.84
2023-05-25T12:35:08.745Z,67.21
2023-05-25T12:40:24.916Z,65.68
2023-05-25T12:45:33.143Z,66.36
2023-05-25T12:50:41.076Z,66.02
2023-05-25T12:55:47.851Z,65.53
2023-05-25T13:00:56.055Z,64.23
2023-05-25T13:06:03.176Z,63.60
2023-05-25T13:11:10.144Z,64.91
2023-05-25T13:16:18.331Z,63.36
2023-05-25T13:21:25.101Z,63.18
2023-05-25T13:26:31.780Z,63.21
2023-05-25T13:31:39.612Z,63.74
2023-05-25T13:36:46.502Z,63.31
2023-05-25T13:41:52.736Z,63.07
2023-05-25T13:47:00.760Z,63.44
2023-05-25T13:52:07.864Z,63.65
2023-05-25T13:57:14.644Z,64.31
2023-05-25T14:02:22.561Z,63.80
2023-05-25T14:07:30.324Z,63.55
2023-05-25T14:12:36.631Z,63.87
2023-05-25T14:17:44.426Z,64.11
2023-05-25T14:22:50.985Z,63.92
2023-05-25T14:27:58.285Z,64.25
2023-05-25T14:33:06.481Z,63.57
2023-05-25T14:38:13.050Z,62.90
2023-05-25T14:43:19.661Z,63.68
2023-05-25T14:48:27.914Z,64.77
2023-05-25T14:53:34.832Z,64.91
2023-05-25T14:58:41.691Z,64.57
2023-05-25T15:03:49.583Z,64.28
2023-05-25T15:08:56.076Z,64.17
2023-05-25T15:14:02.595Z,63.93
2023-05-25T15:19:12.162Z,63.71
2023-05-25T15:24:20.456Z,62.99
2023-05-25T15:29:27.541Z,63.23
2023-05-25T15:34:35.433Z,63.24
2023-05-25T15:39:41.924Z,64.07
2023-05-25T15:44:48.243Z,64.12
2023-05-25T15:49:56.630Z,64.59
2023-05-25T15:55:03.464Z,64.67
2023-05-25T16:00:12.185Z,64.56
2023-05-25T16:05:20.136Z,63.10
2023-05-25T16:10:26.725Z,63.04
2023-05-25T16:15:33.398Z,62.72
2023-05-25T16:20:41.614Z,63.25
2023-05-25T16:25:48.278Z,63.22
2023-05-25T16:30:54.670Z,63.52
2023-05-25T16:36:02.834Z,63.47
2023-05-25T16:41:09.333Z,63.35
2023-05-25T16:46:16.054Z,63.93
2023-05-25T16:51:24.044Z,64.55
2023-05-25T16:56:30.887Z,64.63
2023-05-25T17:01:37.449Z,65.82
2023-05-25T17:06:45.591Z,65.39
2023-05-25T17:11:53.667Z,65.28
2023-05-25T17:17:00.231Z,65.64
2023-05-25T17:22:08.031Z,66.09
2023-05-25T17:27:15.255Z,66.95
2023-05-25T17:32:22.722Z,66.58
2023-05-25T17:37:31.480Z,67.29
2023-05-25T17:42:38.267Z,68.10
2023-05-25T17:47:45.305Z,68.35
2023-05-25T17:52:53.853Z,68.52
2023-05-25T17:58:01.233Z,69.57
2023-05-25T18:03:07.791Z,70.52
2023-05-25T18:08:16.005Z,70.47
2023-05-25T18:13:22.647Z,70.87
2023-05-25T18:18:29.049Z,71.85
2023-05-25T18:23:37.083Z,72.68
2023-05-25T18:28:43.620Z,74.04
2023-05-25T18:33:50.505Z,75.10
2023-05-25T18:38:59.057Z,75.01
2023-05-25T18:44:05.796Z,75.69
2023-05-25T18:49:12.500Z,75.58
2023-05-25T18:54:20.970Z,75.60
2023-05-25T18:59:28.385Z,75.86
2023-05-25T19:04:35.433Z,76.13
2023-05-25T19:09:43.993Z,76.28
2023-05-25T19:14:50.715Z,76.63
2023-05-25T19:19:57.304Z,76.92
2023-05-25T19:25:06.412Z,77.27
2023-05-25T19:30:13.851Z,78.12
2023-05-25T19:35:20.345Z,78.00
2023-05-25T19:40:28.393Z,78.79
2023-05-25T19:45:35.048Z,79.14
2023-05-25T19:50:42.425Z,79.09
2023-05-25T19:55:50.882Z,79.42
2023-05-25T20:00:58.311Z,79.67
2023-05-25T20:06:05.144Z,79.82
2023-05-25T20:11:13.742Z,79.97
2023-05-25T20:16:20.526Z,80.59
2023-05-25T20:21:27.115Z,80.72
2023-05-25T20:26:35.674Z,80.62
2023-05-25T20:31:42.308Z,80.66
2023-05-25T20:36:49.240Z,82.46
2023-05-25T20:41:57.545Z,81.24
2023-05-25T20:47:04.554Z,81.25
2023-05-25T20:52:11.099Z,81.22
2023-05-25T20:57:19.374Z,81.67
2023-05-25T21:02:26.261Z,81.30
2023-05-25T21:07:34.834Z,83.15
2023-05-25T21:12:43.093Z,82.88
2023-05-25T21:17:49.990Z,83.24
2023-05-25T21:22:56.788Z,82.58
2023-05-25T21:28:05.024Z,82.55
2023-05-25T21:33:11.718Z,82.03
2023-05-25T21:38:18.670Z,81.31
2023-05-25T21:43:27.918Z,81.41
2023-05-25T21:48:34.602Z,81.57
2023-05-25T21:53:40.815Z,81.33
2023-05-25T21:58:49.446Z,81.99
2023-05-25T22:03:55.950Z,81.89
2023-05-25T22:09:02.674Z,81.74
2023-05-25T22:14:10.800Z,81.64
2023-05-25T22:19:17.720Z,81.86
2023-05-25T22:24:24.032Z,81.27
2023-05-25T22:29:31.893Z,80.59
2023-05-25T22:34:38.419Z,79.04
2023-05-25T22:39:45.036Z,78.54
2023-05-25T22:44:53.189Z,78.40
2023-05-25T22:49:59.461Z,78.39
2023-05-25T22:55:07.928Z,78.36
2023-05-25T23:00:16.521Z,78.26
2023-05-25T23:05:23.051Z,79.52
2023-05-25T23:10:29.557Z,79.88
2023-05-25T23:15:40.290Z,80.04
2023-05-25T23:20:46.614Z,78.89
2023-05-25T23:25:52.822Z,100.00
2023-05-25T23:31:00.754Z,100.00
2023-05-25T23:36:08.616Z,100.00
2023-05-25T23:41:16.810Z,100.00
2023-05-25T23:46:25.401Z,78.89
2023-05-25T23:51:33.906Z,75.44
2023-05-25T23:56:40.497Z,75.52
